sensor_id;sensor_type;location;lat;lon;timestamp;temperature;humidity
29479;DHT22;16437;41.836;23.480;2022-07-30T00:04:49;27.40;47.10
29479;DHT22;16437;41.836;23.480;2022-07-30T00:10:16;27.40;47.10
29479;DHT22;16437;41.836;23.480;2022-07-30T00:15:42;27.40;47.10
29479;DHT22;16437;41.836;23.480;2022-07-30T00:21:09;27.40;47.10
29479;DHT22;16437;41.836;23.480;2022-07-30T00:26:35;27.40;47.20
29479;DHT22;16437;41.836;23.480;2022-07-30T00:32:02;27.30;47.20
29479;DHT22;16437;41.836;23.480;2022-07-30T00:37:29;27.30;47.20
29479;DHT22;16437;41.836;23.480;2022-07-30T00:42:55;27.30;47.30
29479;DHT22;16437;41.836;23.480;2022-07-30T00:48:22;27.30;47.20
29479;DHT22;16437;41.836;23.480;2022-07-30T00:53:49;27.30;47.20
29479;DHT22;16437;41.836;23.480;2022-07-30T00:59:15;27.30;47.10
29479;DHT22;16437;41.836;23.480;2022-07-30T01:04:42;27.30;47.10
29479;DHT22;16437;41.836;23.480;2022-07-30T01:10:10;27.30;47.10
29479;DHT22;16437;41.836;23.480;2022-07-30T01:15:37;27.30;47.10
29479;DHT22;16437;41.836;23.480;2022-07-30T01:21:06;27.30;47.10
29479;DHT22;16437;41.836;23.480;2022-07-30T01:26:34;27.30;47.10
29479;DHT22;16437;41.836;23.480;2022-07-30T01:32:01;27.30;47.10
29479;DHT22;16437;41.836;23.480;2022-07-30T01:37:31;27.30;47.10
29479;DHT22;16437;41.836;23.480;2022-07-30T01:42:59;27.30;47.10
29479;DHT22;16437;41.836;23.480;2022-07-30T01:48:27;27.30;47.10
29479;DHT22;16437;41.836;23.480;2022-07-30T01:53:54;27.20;47.00
29479;DHT22;16437;41.836;23.480;2022-07-30T01:59:22;27.20;47.10
29479;DHT22;16437;41.836;23.480;2022-07-30T02:04:49;27.30;47.00
29479;DHT22;16437;41.836;23.480;2022-07-30T02:11:03;27.20;47.10
29479;DHT22;16437;41.836;23.480;2022-07-30T02:15:57;27.20;47.10
29479;DHT22;16437;41.836;23.480;2022-07-30T02:21:24;27.20;47.00
29479;DHT22;16437;41.836;23.480;2022-07-30T02:26:55;27.30;47.00
29479;DHT22;16437;41.836;23.480;2022-07-30T02:32:23;27.20;47.00
29479;DHT22;16437;41.836;23.480;2022-07-30T02:37:52;27.10;47.00
29479;DHT22;16437;41.836;23.480;2022-07-30T02:43:19;27.10;46.90
29479;DHT22;16437;41.836;23.480;2022-07-30T02:48:49;27.10;46.90
29479;DHT22;16437;41.836;23.480;2022-07-30T02:54:17;27.10;46.90
29479;DHT22;16437;41.836;23.480;2022-07-30T02:59:45;27.10;46.90
29479;DHT22;16437;41.836;23.480;2022-07-30T03:05:14;27.10;46.90
29479;DHT22;16437;41.836;23.480;2022-07-30T03:10:42;27.10;46.90
29479;DHT22;16437;41.836;23.480;2022-07-30T03:16:10;27.10;46.90
29479;DHT22;16437;41.836;23.480;2022-07-30T03:21:39;27.10;46.90
29479;DHT22;16437;41.836;23.480;2022-07-30T03:27:06;27.10;46.90
29479;DHT22;16437;41.836;23.480;2022-07-30T03:32:34;27.10;46.80
29479;DHT22;16437;41.836;23.480;2022-07-30T03:38:02;27.10;46.80
29479;DHT22;16437;41.836;23.480;2022-07-30T03:43:29;27.00;46.80
29479;DHT22;16437;41.836;23.480;2022-07-30T03:48:57;27.00;46.70
29479;DHT22;16437;41.836;23.480;2022-07-30T03:54:24;27.10;46.80
29479;DHT22;16437;41.836;23.480;2022-07-30T03:59:51;27.00;46.70
29479;DHT22;16437;41.836;23.480;2022-07-30T04:05:17;27.00;46.70
29479;DHT22;16437;41.836;23.480;2022-07-30T04:10:44;27.00;46.70
29479;DHT22;16437;41.836;23.480;2022-07-30T04:16:27;27.00;46.70
29479;DHT22;16437;41.836;23.480;2022-07-30T04:21:53;27.00;46.70
29479;DHT22;16437;41.836;23.480;2022-07-30T04:27:21;27.00;46.70
29479;DHT22;16437;41.836;23.480;2022-07-30T04:32:49;27.00;46.80
29479;DHT22;16437;41.836;23.480;2022-07-30T04:38:15;27.00;46.80
29479;DHT22;16437;41.836;23.480;2022-07-30T04:43:42;27.00;46.90
29479;DHT22;16437;41.836;23.480;2022-07-30T04:49:09;26.90;46.90
29479;DHT22;16437;41.836;23.480;2022-07-30T04:54:47;26.90;47.00
29479;DHT22;16437;41.836;23.480;2022-07-30T05:00:12;26.90;47.00
29479;DHT22;16437;41.836;23.480;2022-07-30T05:05:40;26.90;47.00
29479;DHT22;16437;41.836;23.480;2022-07-30T05:11:12;26.90;47.00
29479;DHT22;16437;41.836;23.480;2022-07-30T05:16:38;26.90;47.00
29479;DHT22;16437;41.836;23.480;2022-07-30T05:22:05;26.90;47.00
29479;DHT22;16437;41.836;23.480;2022-07-30T05:27:31;26.90;47.10
29479;DHT22;16437;41.836;23.480;2022-07-30T05:32:58;26.90;47.00
29479;DHT22;16437;41.836;23.480;2022-07-30T05:38:24;26.90;47.00
29479;DHT22;16437;41.836;23.480;2022-07-30T05:43:51;26.90;47.10
29479;DHT22;16437;41.836;23.480;2022-07-30T05:49:18;26.90;47.10
29479;DHT22;16437;41.836;23.480;2022-07-30T05:54:44;26.90;47.20
29479;DHT22;16437;41.836;23.480;2022-07-30T06:00:11;26.90;47.20
29479;DHT22;16437;41.836;23.480;2022-07-30T06:05:38;26.90;47.20
29479;DHT22;16437;41.836;23.480;2022-07-30T06:11:05;26.90;47.30
29479;DHT22;16437;41.836;23.480;2022-07-30T06:16:32;26.90;47.40
29479;DHT22;16437;41.836;23.480;2022-07-30T06:21:58;27.00;47.40
29479;DHT22;16437;41.836;23.480;2022-07-30T06:27:25;26.90;47.40
29479;DHT22;16437;41.836;23.480;2022-07-30T06:32:52;26.90;47.40
29479;DHT22;16437;41.836;23.480;2022-07-30T06:38:18;26.90;47.50
29479;DHT22;16437;41.836;23.480;2022-07-30T06:43:44;26.90;47.60
29479;DHT22;16437;41.836;23.480;2022-07-30T06:49:10;26.90;47.60
29479;DHT22;16437;41.836;23.480;2022-07-30T06:54:37;26.90;47.60
29479;DHT22;16437;41.836;23.480;2022-07-30T07:00:04;26.90;47.60
29479;DHT22;16437;41.836;23.480;2022-07-30T07:05:31;27.00;47.60
29479;DHT22;16437;41.836;23.480;2022-07-30T07:10:58;27.00;47.60
29479;DHT22;16437;41.836;23.480;2022-07-30T07:16:24;27.00;47.50
29479;DHT22;16437;41.836;23.480;2022-07-30T07:21:51;27.00;47.60
29479;DHT22;16437;41.836;23.480;2022-07-30T07:27:18;27.00;47.60
29479;DHT22;16437;41.836;23.480;2022-07-30T07:32:45;27.00;47.60
29479;DHT22;16437;41.836;23.480;2022-07-30T07:38:11;27.00;47.60
29479;DHT22;16437;41.836;23.480;2022-07-30T07:43:38;27.00;47.60
29479;DHT22;16437;41.836;23.480;2022-07-30T07:49:05;27.10;47.60
29479;DHT22;16437;41.836;23.480;2022-07-30T07:54:31;27.10;47.60
29479;DHT22;16437;41.836;23.480;2022-07-30T07:59:57;27.00;47.70
29479;DHT22;16437;41.836;23.480;2022-07-30T08:05:24;27.10;47.80
29479;DHT22;16437;41.836;23.480;2022-07-30T08:10:50;27.10;47.80
29479;DHT22;16437;41.836;23.480;2022-07-30T08:16:17;27.10;47.80
29479;DHT22;16437;41.836;23.480;2022-07-30T08:21:43;27.10;47.80
29479;DHT22;16437;41.836;23.480;2022-07-30T08:27:10;27.10;47.80
29479;DHT22;16437;41.836;23.480;2022-07-30T08:32:36;27.10;47.80
29479;DHT22;16437;41.836;23.480;2022-07-30T08:38:02;27.20;47.70
29479;DHT22;16437;41.836;23.480;2022-07-30T08:43:30;27.20;47.80
29479;DHT22;16437;41.836;23.480;2022-07-30T08:48:57;27.20;47.80
29479;DHT22;16437;41.836;23.480;2022-07-30T08:54:23;27.30;47.80
29479;DHT22;16437;41.836;23.480;2022-07-30T08:59:50;27.30;47.80
29479;DHT22;16437;41.836;23.480;2022-07-30T09:05:17;27.30;47.80
29479;DHT22;16437;41.836;23.480;2022-07-30T09:10:44;27.20;47.80
29479;DHT22;16437;41.836;23.480;2022-07-30T09:16:20;27.20;47.80
29479;DHT22;16437;41.836;23.480;2022-07-30T09:22:01;27.30;47.80
29479;DHT22;16437;41.836;23.480;2022-07-30T09:27:24;27.30;47.80
29479;DHT22;16437;41.836;23.480;2022-07-30T09:32:54;27.20;47.80
29479;DHT22;16437;41.836;23.480;2022-07-30T09:38:21;27.30;47.90
29479;DHT22;16437;41.836;23.480;2022-07-30T09:43:50;27.30;47.90
29479;DHT22;16437;41.836;23.480;2022-07-30T09:49:19;27.30;47.90
29479;DHT22;16437;41.836;23.480;2022-07-30T09:54:48;27.30;47.90
29479;DHT22;16437;41.836;23.480;2022-07-30T10:00:17;27.40;47.90
29479;DHT22;16437;41.836;23.480;2022-07-30T10:05:55;27.30;48.00
29479;DHT22;16437;41.836;23.480;2022-07-30T10:11:22;27.40;48.00
29479;DHT22;16437;41.836;23.480;2022-07-30T10:16:51;27.40;48.10
29479;DHT22;16437;41.836;23.480;2022-07-30T10:22:18;27.40;48.10
29479;DHT22;16437;41.836;23.480;2022-07-30T10:27:45;27.50;48.20
29479;DHT22;16437;41.836;23.480;2022-07-30T10:33:12;27.50;48.20
29479;DHT22;16437;41.836;23.480;2022-07-30T10:38:39;27.50;48.20
29479;DHT22;16437;41.836;23.480;2022-07-30T10:50:09;27.60;48.20
29479;DHT22;16437;41.836;23.480;2022-07-30T10:55:38;27.60;48.20
29479;DHT22;16437;41.836;23.480;2022-07-30T11:01:04;27.60;48.20
29479;DHT22;16437;41.836;23.480;2022-07-30T11:06:31;27.60;48.30
29479;DHT22;16437;41.836;23.480;2022-07-30T11:11:57;27.60;48.40
29479;DHT22;16437;41.836;23.480;2022-07-30T11:17:24;27.60;48.50
29479;DHT22;16437;41.836;23.480;2022-07-30T11:22:51;27.60;48.60
29479;DHT22;16437;41.836;23.480;2022-07-30T11:28:35;27.60;48.70
29479;DHT22;16437;41.836;23.480;2022-07-30T11:45:24;27.60;49.00
29479;DHT22;16437;41.836;23.480;2022-07-30T11:50:54;27.70;49.10
29479;DHT22;16437;41.836;23.480;2022-07-30T11:56:21;27.70;49.10
29479;DHT22;16437;41.836;23.480;2022-07-30T12:01:53;27.70;49.30
29479;DHT22;16437;41.836;23.480;2022-07-30T12:07:22;27.70;49.30
29479;DHT22;16437;41.836;23.480;2022-07-30T12:12:49;27.70;49.30
29479;DHT22;16437;41.836;23.480;2022-07-30T12:18:28;27.80;49.40
29479;DHT22;16437;41.836;23.480;2022-07-30T12:24:02;27.90;49.40
29479;DHT22;16437;41.836;23.480;2022-07-30T12:29:32;27.90;49.40
29479;DHT22;16437;41.836;23.480;2022-07-30T12:34:59;27.90;49.40
29479;DHT22;16437;41.836;23.480;2022-07-30T12:40:26;27.90;49.50
29479;DHT22;16437;41.836;23.480;2022-07-30T12:45:56;27.90;49.60
29479;DHT22;16437;41.836;23.480;2022-07-30T12:51:24;27.90;49.70
29479;DHT22;16437;41.836;23.480;2022-07-30T12:57:02;27.90;49.70
29479;DHT22;16437;41.836;23.480;2022-07-30T13:02:33;28.00;49.80
29479;DHT22;16437;41.836;23.480;2022-07-30T13:08:00;28.00;49.80
29479;DHT22;16437;41.836;23.480;2022-07-30T13:13:27;28.00;49.80
29479;DHT22;16437;41.836;23.480;2022-07-30T13:18:54;28.00;49.70
29479;DHT22;16437;41.836;23.480;2022-07-30T13:24:21;28.00;49.70
29479;DHT22;16437;41.836;23.480;2022-07-30T13:29:48;28.00;49.60
29479;DHT22;16437;41.836;23.480;2022-07-30T13:35:14;28.00;49.50
29479;DHT22;16437;41.836;23.480;2022-07-30T13:40:41;28.10;49.40
29479;DHT22;16437;41.836;23.480;2022-07-30T13:46:07;28.10;49.30
29479;DHT22;16437;41.836;23.480;2022-07-30T13:51:34;28.10;49.20
29479;DHT22;16437;41.836;23.480;2022-07-30T13:57:00;28.10;49.10
29479;DHT22;16437;41.836;23.480;2022-07-30T14:02:27;28.10;49.10
29479;DHT22;16437;41.836;23.480;2022-07-30T14:07:53;28.10;49.00
29479;DHT22;16437;41.836;23.480;2022-07-30T14:13:20;28.10;49.00
29479;DHT22;16437;41.836;23.480;2022-07-30T14:18:46;28.20;49.00
29479;DHT22;16437;41.836;23.480;2022-07-30T14:24:14;28.20;49.10
29479;DHT22;16437;41.836;23.480;2022-07-30T14:29:41;28.20;49.10
29479;DHT22;16437;41.836;23.480;2022-07-30T14:35:09;28.20;49.10
29479;DHT22;16437;41.836;23.480;2022-07-30T14:40:36;28.20;49.10
29479;DHT22;16437;41.836;23.480;2022-07-30T14:46:02;28.20;49.10
29479;DHT22;16437;41.836;23.480;2022-07-30T14:51:28;28.20;49.10
29479;DHT22;16437;41.836;23.480;2022-07-30T14:56:55;28.20;49.00
29479;DHT22;16437;41.836;23.480;2022-07-30T15:02:21;28.20;48.90
29479;DHT22;16437;41.836;23.480;2022-07-30T15:07:48;28.20;48.90
29479;DHT22;16437;41.836;23.480;2022-07-30T15:13:14;28.20;48.90
29479;DHT22;16437;41.836;23.480;2022-07-30T15:18:40;28.20;48.90
29479;DHT22;16437;41.836;23.480;2022-07-30T15:24:07;28.20;48.90
29479;DHT22;16437;41.836;23.480;2022-07-30T15:29:34;28.20;48.90
29479;DHT22;16437;41.836;23.480;2022-07-30T15:35:00;28.20;48.90
29479;DHT22;16437;41.836;23.480;2022-07-30T15:40:27;28.20;48.90
29479;DHT22;16437;41.836;23.480;2022-07-30T15:45:53;28.20;48.90
29479;DHT22;16437;41.836;23.480;2022-07-30T15:51:20;28.20;48.90
29479;DHT22;16437;41.836;23.480;2022-07-30T15:56:46;28.20;48.90
29479;DHT22;16437;41.836;23.480;2022-07-30T16:02:14;28.20;48.90
29479;DHT22;16437;41.836;23.480;2022-07-30T16:07:40;28.20;48.90
29479;DHT22;16437;41.836;23.480;2022-07-30T16:13:07;28.20;48.90
29479;DHT22;16437;41.836;23.480;2022-07-30T16:18:34;28.20;48.90
29479;DHT22;16437;41.836;23.480;2022-07-30T16:24:02;28.20;48.90
29479;DHT22;16437;41.836;23.480;2022-07-30T16:29:28;28.20;48.90
29479;DHT22;16437;41.836;23.480;2022-07-30T16:34:54;28.20;48.90
29479;DHT22;16437;41.836;23.480;2022-07-30T16:40:21;28.20;49.00
29479;DHT22;16437;41.836;23.480;2022-07-30T16:45:47;28.20;49.00
29479;DHT22;16437;41.836;23.480;2022-07-30T16:51:14;28.20;49.00
29479;DHT22;16437;41.836;23.480;2022-07-30T16:56:40;28.20;49.00
29479;DHT22;16437;41.836;23.480;2022-07-30T17:02:07;28.20;49.00
29479;DHT22;16437;41.836;23.480;2022-07-30T17:07:33;28.10;49.10
29479;DHT22;16437;41.836;23.480;2022-07-30T17:13:00;28.20;49.10
29479;DHT22;16437;41.836;23.480;2022-07-30T17:18:26;28.10;49.10
29479;DHT22;16437;41.836;23.480;2022-07-30T17:23:53;28.10;49.00
29479;DHT22;16437;41.836;23.480;2022-07-30T17:29:20;28.10;49.10
29479;DHT22;16437;41.836;23.480;2022-07-30T17:34:47;28.10;48.90
29479;DHT22;16437;41.836;23.480;2022-07-30T17:40:13;28.10;48.90
29479;DHT22;16437;41.836;23.480;2022-07-30T17:45:40;28.10;48.90
29479;DHT22;16437;41.836;23.480;2022-07-30T17:51:07;28.10;48.90
29479;DHT22;16437;41.836;23.480;2022-07-30T17:56:34;28.10;49.00
29479;DHT22;16437;41.836;23.480;2022-07-30T18:02:01;28.10;49.00
29479;DHT22;16437;41.836;23.480;2022-07-30T18:07:28;28.10;49.20
29479;DHT22;16437;41.836;23.480;2022-07-30T18:12:54;28.10;49.30
29479;DHT22;16437;41.836;23.480;2022-07-30T18:18:21;28.00;49.30
29479;DHT22;16437;41.836;23.480;2022-07-30T18:23:48;28.10;49.30
29479;DHT22;16437;41.836;23.480;2022-07-30T18:29:15;28.00;49.30
29479;DHT22;16437;41.836;23.480;2022-07-30T18:34:41;28.10;49.30
29479;DHT22;16437;41.836;23.480;2022-07-30T18:40:08;28.00;49.30
29479;DHT22;16437;41.836;23.480;2022-07-30T18:45:35;28.00;49.10
29479;DHT22;16437;41.836;23.480;2022-07-30T18:51:02;28.00;49.10
29479;DHT22;16437;41.836;23.480;2022-07-30T18:56:29;28.00;49.20
29479;DHT22;16437;41.836;23.480;2022-07-30T19:01:56;28.00;49.10
29479;DHT22;16437;41.836;23.480;2022-07-30T19:07:22;28.00;49.00
29479;DHT22;16437;41.836;23.480;2022-07-30T19:12:49;28.00;49.10
29479;DHT22;16437;41.836;23.480;2022-07-30T19:18:15;28.00;49.10
29479;DHT22;16437;41.836;23.480;2022-07-30T19:23:41;28.00;49.10
29479;DHT22;16437;41.836;23.480;2022-07-30T19:29:08;27.90;49.00
29479;DHT22;16437;41.836;23.480;2022-07-30T19:34:37;28.00;49.10
29479;DHT22;16437;41.836;23.480;2022-07-30T19:40:04;27.90;49.10
29479;DHT22;16437;41.836;23.480;2022-07-30T19:45:33;27.90;49.10
29479;DHT22;16437;41.836;23.480;2022-07-30T19:51:00;27.90;49.10
29479;DHT22;16437;41.836;23.480;2022-07-30T19:56:27;27.90;49.10
29479;DHT22;16437;41.836;23.480;2022-07-30T21:07:18;26.90;49.10
29479;DHT22;16437;41.836;23.480;2022-07-30T21:12:26;27.30;49.20
29479;DHT22;16437;41.836;23.480;2022-07-30T21:17:34;27.30;49.30
29479;DHT22;16437;41.836;23.480;2022-07-30T21:22:43;27.20;49.40
29479;DHT22;16437;41.836;23.480;2022-07-30T21:27:51;27.20;49.60
29479;DHT22;16437;41.836;23.480;2022-07-30T21:32:58;27.20;49.70
29479;DHT22;16437;41.836;23.480;2022-07-30T21:38:06;27.20;50.00
29479;DHT22;16437;41.836;23.480;2022-07-30T21:43:14;27.20;50.10
29479;DHT22;16437;41.836;23.480;2022-07-30T21:48:22;27.20;50.00
29479;DHT22;16437;41.836;23.480;2022-07-30T21:53:30;27.20;49.90
29479;DHT22;16437;41.836;23.480;2022-07-30T21:58:39;27.20;49.80
29479;DHT22;16437;41.836;23.480;2022-07-30T22:03:48;27.20;49.70
29479;DHT22;16437;41.836;23.480;2022-07-30T22:08:55;27.30;49.50
29479;DHT22;16437;41.836;23.480;2022-07-30T22:14:03;27.20;49.20
29479;DHT22;16437;41.836;23.480;2022-07-30T22:19:11;27.20;49.20
29479;DHT22;16437;41.836;23.480;2022-07-30T22:24:19;27.20;49.30
29479;DHT22;16437;41.836;23.480;2022-07-30T22:29:28;27.20;49.40
29479;DHT22;16437;41.836;23.480;2022-07-30T22:34:36;27.30;49.40
29479;DHT22;16437;41.836;23.480;2022-07-30T22:39:44;27.30;49.40
29479;DHT22;16437;41.836;23.480;2022-07-30T22:44:52;27.30;49.40
29479;DHT22;16437;41.836;23.480;2022-07-30T22:50:00;27.20;49.30
29479;DHT22;16437;41.836;23.480;2022-07-30T22:55:08;27.10;49.20
29479;DHT22;16437;41.836;23.480;2022-07-30T23:00:16;27.10;49.10
29479;DHT22;16437;41.836;23.480;2022-07-30T23:05:25;27.10;49.00
29479;DHT22;16437;41.836;23.480;2022-07-30T23:10:33;27.10;49.00
29479;DHT22;16437;41.836;23.480;2022-07-30T23:15:40;27.10;49.10
29479;DHT22;16437;41.836;23.480;2022-07-30T23:20:48;27.20;49.30
29479;DHT22;16437;41.836;23.480;2022-07-30T23:25:56;27.20;49.40
29479;DHT22;16437;41.836;23.480;2022-07-30T23:31:04;27.20;49.60
29479;DHT22;16437;41.836;23.480;2022-07-30T23:36:12;27.20;49.80
29479;DHT22;16437;41.836;23.480;2022-07-30T23:41:19;27.10;50.00
29479;DHT22;16437;41.836;23.480;2022-07-30T23:46:27;27.10;50.00
29479;DHT22;16437;41.836;23.480;2022-07-30T23:51:35;27.20;50.10
29479;DHT22;16437;41.836;23.480;2022-07-30T23:56:44;27.10;50.00
